sensor_id;sensor_type;location;lat;lon;timestamp;P1;durP1;ratioP1;P2;durP2;ratioP2
13463;SDS011;6804;48.774;9.174;2022-09-03T00:01:34;3.47;;;2.13;;
13463;SDS011;6804;48.774;9.174;2022-09-03T00:04:17;2.30;;;2.10;;
13463;SDS011;6804;48.774;9.174;2022-09-03T00:06:54;2.87;;;1.90;;
13463;SDS011;6804;48.774;9.174;2022-09-03T00:09:28;4.57;;;2.00;;
13463;SDS011;6804;48.774;9.174;2022-09-03T00:12:00;3.17;;;2.20;;
13463;SDS011;6804;48.774;9.174;2022-09-03T00:14:37;2.23;;;2.00;;
13463;SDS011;6804;48.774;9.174;2022-09-03T00:17:08;3.37;;;2.83;;
13463;SDS011;6804;48.774;9.174;2022-09-03T00:19:47;4.27;;;2.67;;
13463;SDS011;6804;48.774;9.174;2022-09-03T00:22:21;2.47;;;2.27;;
13463;SDS011;6804;48.774;9.174;2022-09-03T00:24:52;3.30;;;2.10;;
13463;SDS011;6804;48.774;9.174;2022-09-03T00:27:26;2.20;;;1.87;;
13463;SDS011;6804;48.774;9.174;2022-09-03T00:29:56;2.40;;;1.97;;
13463;SDS011;6804;48.774;9.174;2022-09-03T00:32:33;4.47;;;1.77;;
13463;SDS011;6804;48.774;9.174;2022-09-03T00:35:10;4.70;;;2.10;;
13463;SDS011;6804;48.774;9.174;2022-09-03T00:37:45;2.23;;;1.77;;
13463;SDS011;6804;48.774;9.174;2022-09-03T00:40:15;3.43;;;1.90;;
13463;SDS011;6804;48.774;9.174;2022-09-03T00:42:54;2.03;;;1.80;;
13463;SDS011;6804;48.774;9.174;2022-09-03T00:45:31;2.77;;;1.77;;
13463;SDS011;6804;48.774;9.174;2022-09-03T00:48:07;2.67;;;2.27;;
13463;SDS011;6804;48.774;9.174;2022-09-03T00:50:49;2.10;;;1.90;;
13463;SDS011;6804;48.774;9.174;2022-09-03T00:53:32;3.73;;;1.90;;
13463;SDS011;6804;48.774;9.174;2022-09-03T00:56:08;4.83;;;2.00;;
13463;SDS011;6804;48.774;9.174;2022-09-03T00:58:49;6.50;;;1.70;;
13463;SDS011;6804;48.774;9.174;2022-09-03T01:01:29;2.40;;;1.70;;
13463;SDS011;6804;48.774;9.174;2022-09-03T01:04:07;2.00;;;1.63;;
13463;SDS011;6804;48.774;9.174;2022-09-03T01:06:54;1.70;;;1.60;;
13463;SDS011;6804;48.774;9.174;2022-09-03T01:09:31;1.60;;;1.30;;
13463;SDS011;6804;48.774;9.174;2022-09-03T01:12:15;2.10;;;1.83;;
13463;SDS011;6804;48.774;9.174;2022-09-03T01:14:53;3.57;;;2.33;;
13463;SDS011;6804;48.774;9.174;2022-09-03T01:17:31;5.77;;;2.40;;
13463;SDS011;6804;48.774;9.174;2022-09-03T01:20:25;2.47;;;2.20;;
13463;SDS011;6804;48.774;9.174;2022-09-03T01:23:29;3.90;;;2.20;;
13463;SDS011;6804;48.774;9.174;2022-09-03T01:26:38;2.13;;;1.50;;
13463;SDS011;6804;48.774;9.174;2022-09-03T01:29:22;2.10;;;1.50;;
13463;SDS011;6804;48.774;9.174;2022-09-03T01:32:06;2.53;;;2.00;;
13463;SDS011;6804;48.774;9.174;2022-09-03T01:34:42;3.10;;;1.70;;
13463;SDS011;6804;48.774;9.174;2022-09-03T01:37:22;3.60;;;2.07;;
13463;SDS011;6804;48.774;9.174;2022-09-03T01:40:02;1.70;;;1.60;;
13463;SDS011;6804;48.774;9.174;2022-09-03T01:42:57;2.17;;;1.67;;
13463;SDS011;6804;48.774;9.174;2022-09-03T01:45:50;1.87;;;1.50;;
13463;SDS011;6804;48.774;9.174;2022-09-03T01:48:30;4.33;;;1.90;;
13463;SDS011;6804;48.774;9.174;2022-09-03T01:51:06;4.20;;;1.33;;
13463;SDS011;6804;48.774;9.174;2022-09-03T01:56:52;1.90;;;1.50;;
13463;SDS011;6804;48.774;9.174;2022-09-03T01:59:48;1.83;;;1.63;;
13463;SDS011;6804;48.774;9.174;2022-09-03T02:02:27;1.90;;;1.60;;
13463;SDS011;6804;48.774;9.174;2022-09-03T02:04:59;2.60;;;1.60;;
13463;SDS011;6804;48.774;9.174;2022-09-03T02:07:32;2.60;;;1.50;;
13463;SDS011;6804;48.774;9.174;2022-09-03T02:10:06;3.73;;;1.53;;
13463;SDS011;6804;48.774;9.174;2022-09-03T02:12:36;2.33;;;1.73;;
13463;SDS011;6804;48.774;9.174;2022-09-03T02:15:09;1.70;;;1.40;;
13463;SDS011;6804;48.774;9.174;2022-09-03T02:17:44;2.23;;;2.00;;
13463;SDS011;6804;48.774;9.174;2022-09-03T02:20:15;2.37;;;1.87;;
13463;SDS011;6804;48.774;9.174;2022-09-03T02:22:45;2.03;;;1.60;;
13463;SDS011;6804;48.774;9.174;2022-09-03T02:25:14;1.80;;;1.70;;
13463;SDS011;6804;48.774;9.174;2022-09-03T02:27:46;1.70;;;1.50;;
13463;SDS011;6804;48.774;9.174;2022-09-03T02:30:14;2.37;;;1.80;;
13463;SDS011;6804;48.774;9.174;2022-09-03T02:32:48;3.63;;;1.80;;
13463;SDS011;6804;48.774;9.174;2022-09-03T02:35:18;2.10;;;1.77;;
13463;SDS011;6804;48.774;9.174;2022-09-03T02:37:46;1.97;;;1.47;;
13463;SDS011;6804;48.774;9.174;2022-09-03T02:40:14;3.93;;;1.70;;
13463;SDS011;6804;48.774;9.174;2022-09-03T02:42:46;3.40;;;1.90;;
13463;SDS011;6804;48.774;9.174;2022-09-03T02:45:18;3.00;;;1.77;;
13463;SDS011;6804;48.774;9.174;2022-09-03T02:47:55;3.23;;;2.30;;
13463;SDS011;6804;48.774;9.174;2022-09-03T02:50:24;2.50;;;1.50;;
13463;SDS011;6804;48.774;9.174;2022-09-03T02:52:54;1.73;;;1.57;;
13463;SDS011;6804;48.774;9.174;2022-09-03T02:55:24;2.20;;;1.60;;
13463;SDS011;6804;48.774;9.174;2022-09-03T02:57:52;1.97;;;1.50;;
13463;SDS011;6804;48.774;9.174;2022-09-03T03:00:21;3.80;;;1.60;;
13463;SDS011;6804;48.774;9.174;2022-09-03T03:02:57;4.87;;;1.67;;
13463;SDS011;6804;48.774;9.174;2022-09-03T03:05:29;2.23;;;1.50;;
13463;SDS011;6804;48.774;9.174;2022-09-03T03:08:07;3.23;;;1.43;;
13463;SDS011;6804;48.774;9.174;2022-09-03T03:10:36;2.20;;;1.40;;
13463;SDS011;6804;48.774;9.174;2022-09-03T03:13:04;2.20;;;1.60;;
13463;SDS011;6804;48.774;9.174;2022-09-03T03:15:32;1.67;;;1.30;;
13463;SDS011;6804;48.774;9.174;2022-09-03T03:18:00;2.33;;;1.87;;
13463;SDS011;6804;48.774;9.174;2022-09-03T03:20:28;3.00;;;1.50;;
13463;SDS011;6804;48.774;9.174;2022-09-03T03:22:55;4.57;;;2.17;;
13463;SDS011;6804;48.774;9.174;2022-09-03T03:25:26;3.53;;;1.60;;
13463;SDS011;6804;48.774;9.174;2022-09-03T03:27:54;2.20;;;1.37;;
13463;SDS011;6804;48.774;9.174;2022-09-03T03:30:27;2.23;;;1.73;;
13463;SDS011;6804;48.774;9.174;2022-09-03T03:32:55;1.73;;;1.50;;
13463;SDS011;6804;48.774;9.174;2022-09-03T03:35:25;3.00;;;1.60;;
13463;SDS011;6804;48.774;9.174;2022-09-03T03:37:56;2.93;;;1.57;;
13463;SDS011;6804;48.774;9.174;2022-09-03T03:40:24;3.87;;;1.83;;
13463;SDS011;6804;48.774;9.174;2022-09-03T03:42:58;1.83;;;1.63;;
13463;SDS011;6804;48.774;9.174;2022-09-03T03:45:26;1.90;;;1.40;;
13463;SDS011;6804;48.774;9.174;2022-09-03T03:47:56;2.93;;;1.63;;
13463;SDS011;6804;48.774;9.174;2022-09-03T03:50:29;1.50;;;1.40;;
13463;SDS011;6804;48.774;9.174;2022-09-03T03:52:59;2.07;;;1.57;;
13463;SDS011;6804;48.774;9.174;2022-09-03T03:55:27;2.33;;;1.40;;
13463;SDS011;6804;48.774;9.174;2022-09-03T03:57:57;3.63;;;1.40;;
13463;SDS011;6804;48.774;9.174;2022-09-03T04:00:24;1.87;;;1.43;;
13463;SDS011;6804;48.774;9.174;2022-09-03T04:02:54;1.60;;;1.50;;
13463;SDS011;6804;48.774;9.174;2022-09-03T04:05:21;1.50;;;1.30;;
13463;SDS011;6804;48.774;9.174;2022-09-03T04:07:53;5.40;;;1.57;;
13463;SDS011;6804;48.774;9.174;2022-09-03T04:10:29;3.97;;;1.97;;
13463;SDS011;6804;48.774;9.174;2022-09-03T04:12:56;1.70;;;1.40;;
13463;SDS011;6804;48.774;9.174;2022-09-03T04:15:23;2.40;;;1.53;;
13463;SDS011;6804;48.774;9.174;2022-09-03T04:17:53;1.70;;;1.50;;
13463;SDS011;6804;48.774;9.174;2022-09-03T04:20:20;1.73;;;1.50;;
13463;SDS011;6804;48.774;9.174;2022-09-03T04:22:47;1.50;;;1.40;;
13463;SDS011;6804;48.774;9.174;2022-09-03T04:25:16;2.27;;;1.70;;
13463;SDS011;6804;48.774;9.174;2022-09-03T04:27:47;2.27;;;1.57;;
13463;SDS011;6804;48.774;9.174;2022-09-03T04:30:19;1.80;;;1.57;;
13463;SDS011;6804;48.774;9.174;2022-09-03T04:32:50;2.63;;;1.70;;
13463;SDS011;6804;48.774;9.174;2022-09-03T04:35:20;3.20;;;1.63;;
13463;SDS011;6804;48.774;9.174;2022-09-03T04:37:49;1.83;;;1.67;;
13463;SDS011;6804;48.774;9.174;2022-09-03T04:40:20;3.07;;;1.70;;
13463;SDS011;6804;48.774;9.174;2022-09-03T04:42:47;2.00;;;1.77;;
13463;SDS011;6804;48.774;9.174;2022-09-03T04:45:21;2.53;;;1.80;;
13463;SDS011;6804;48.774;9.174;2022-09-03T04:47:55;2.33;;;1.57;;
13463;SDS011;6804;48.774;9.174;2022-09-03T04:50:34;3.00;;;1.80;;
13463;SDS011;6804;48.774;9.174;2022-09-03T04:53:02;1.97;;;1.70;;
13463;SDS011;6804;48.774;9.174;2022-09-03T04:55:33;2.00;;;1.80;;
13463;SDS011;6804;48.774;9.174;2022-09-03T04:58:00;2.57;;;1.70;;
13463;SDS011;6804;48.774;9.174;2022-09-03T05:00:28;2.37;;;1.60;;
13463;SDS011;6804;48.774;9.174;2022-09-03T05:02:59;3.07;;;1.87;;
13463;SDS011;6804;48.774;9.174;2022-09-03T05:05:32;2.27;;;1.93;;
13463;SDS011;6804;48.774;9.174;2022-09-03T05:08:00;1.70;;;1.60;;
13463;SDS011;6804;48.774;9.174;2022-09-03T05:10:28;4.40;;;2.03;;
13463;SDS011;6804;48.774;9.174;2022-09-03T05:13:01;2.57;;;1.77;;
13463;SDS011;6804;48.774;9.174;2022-09-03T05:15:30;2.67;;;1.80;;
13463;SDS011;6804;48.774;9.174;2022-09-03T05:17:58;2.33;;;1.60;;
13463;SDS011;6804;48.774;9.174;2022-09-03T05:20:26;2.77;;;1.60;;
13463;SDS011;6804;48.774;9.174;2022-09-03T05:22:59;2.37;;;1.80;;
13463;SDS011;6804;48.774;9.174;2022-09-03T05:25:27;4.00;;;1.90;;
13463;SDS011;6804;48.774;9.174;2022-09-03T05:27:57;3.20;;;1.90;;
13463;SDS011;6804;48.774;9.174;2022-09-03T05:30:26;4.13;;;2.00;;
13463;SDS011;6804;48.774;9.174;2022-09-03T05:32:55;2.37;;;1.80;;
13463;SDS011;6804;48.774;9.174;2022-09-03T05:35:25;3.10;;;2.00;;
13463;SDS011;6804;48.774;9.174;2022-09-03T05:37:53;3.57;;;1.80;;
13463;SDS011;6804;48.774;9.174;2022-09-03T05:40:24;3.00;;;1.80;;
13463;SDS011;6804;48.774;9.174;2022-09-03T05:42:53;3.63;;;1.70;;
13463;SDS011;6804;48.774;9.174;2022-09-03T05:45:25;3.40;;;2.03;;
13463;SDS011;6804;48.774;9.174;2022-09-03T05:47:58;1.93;;;1.50;;
13463;SDS011;6804;48.774;9.174;2022-09-03T05:50:28;2.47;;;1.93;;
13463;SDS011;6804;48.774;9.174;2022-09-03T05:52:57;3.93;;;2.20;;
13463;SDS011;6804;48.774;9.174;2022-09-03T05:55:35;3.57;;;1.80;;
13463;SDS011;6804;48.774;9.174;2022-09-03T05:58:05;3.73;;;1.93;;
13463;SDS011;6804;48.774;9.174;2022-09-03T06:00:34;4.50;;;1.70;;
13463;SDS011;6804;48.774;9.174;2022-09-03T06:03:01;2.00;;;1.70;;
13463;SDS011;6804;48.774;9.174;2022-09-03T06:05:29;1.90;;;1.70;;
13463;SDS011;6804;48.774;9.174;2022-09-03T06:07:58;2.27;;;1.87;;
13463;SDS011;6804;48.774;9.174;2022-09-03T06:10:28;3.10;;;1.70;;
13463;SDS011;6804;48.774;9.174;2022-09-03T06:12:58;2.90;;;1.90;;
13463;SDS011;6804;48.774;9.174;2022-09-03T06:15:27;2.60;;;1.80;;
13463;SDS011;6804;48.774;9.174;2022-09-03T06:17:59;2.57;;;1.80;;
13463;SDS011;6804;48.774;9.174;2022-09-03T06:20:26;2.47;;;1.87;;
13463;SDS011;6804;48.774;9.174;2022-09-03T06:22:53;2.30;;;1.80;;
13463;SDS011;6804;48.774;9.174;2022-09-03T06:25:21;2.87;;;1.80;;
13463;SDS011;6804;48.774;9.174;2022-09-03T06:27:49;2.70;;;1.60;;
13463;SDS011;6804;48.774;9.174;2022-09-03T06:30:16;2.90;;;1.90;;
13463;SDS011;6804;48.774;9.174;2022-09-03T06:32:48;3.17;;;2.23;;
13463;SDS011;6804;48.774;9.174;2022-09-03T06:35:19;2.53;;;2.17;;
13463;SDS011;6804;48.774;9.174;2022-09-03T06:37:50;3.23;;;2.17;;
13463;SDS011;6804;48.774;9.174;2022-09-03T06:40:17;3.43;;;1.97;;
13463;SDS011;6804;48.774;9.174;2022-09-03T06:42:54;3.40;;;2.67;;
13463;SDS011;6804;48.774;9.174;2022-09-03T06:45:27;2.93;;;2.27;;
13463;SDS011;6804;48.774;9.174;2022-09-03T06:47:55;4.97;;;2.33;;
13463;SDS011;6804;48.774;9.174;2022-09-03T06:50:26;5.60;;;2.67;;
13463;SDS011;6804;48.774;9.174;2022-09-03T06:52:56;2.23;;;2.03;;
13463;SDS011;6804;48.774;9.174;2022-09-03T06:55:26;4.13;;;2.23;;
13463;SDS011;6804;48.774;9.174;2022-09-03T06:57:56;3.30;;;2.20;;
13463;SDS011;6804;48.774;9.174;2022-09-03T07:00:26;2.30;;;1.90;;
13463;SDS011;6804;48.774;9.174;2022-09-03T07:02:55;4.60;;;2.37;;
13463;SDS011;6804;48.774;9.174;2022-09-03T07:05:28;3.20;;;2.37;;
13463;SDS011;6804;48.774;9.174;2022-09-03T07:07:57;3.63;;;2.30;;
13463;SDS011;6804;48.774;9.174;2022-09-03T07:10:26;4.80;;;2.20;;
13463;SDS011;6804;48.774;9.174;2022-09-03T07:12:59;2.80;;;2.20;;
13463;SDS011;6804;48.774;9.174;2022-09-03T07:15:26;4.87;;;2.67;;
13463;SDS011;6804;48.774;9.174;2022-09-03T07:17:56;2.60;;;2.40;;
13463;SDS011;6804;48.774;9.174;2022-09-03T07:20:23;2.37;;;1.77;;
13463;SDS011;6804;48.774;9.174;2022-09-03T07:22:54;2.33;;;2.13;;
13463;SDS011;6804;48.774;9.174;2022-09-03T07:25:22;4.90;;;2.50;;
13463;SDS011;6804;48.774;9.174;2022-09-03T07:27:50;2.63;;;2.40;;
13463;SDS011;6804;48.774;9.174;2022-09-03T07:30:23;3.60;;;2.30;;
13463;SDS011;6804;48.774;9.174;2022-09-03T07:32:51;3.57;;;2.60;;
13463;SDS011;6804;48.774;9.174;2022-09-03T07:35:19;3.20;;;2.57;;
13463;SDS011;6804;48.774;9.174;2022-09-03T07:37:50;2.90;;;2.70;;
13463;SDS011;6804;48.774;9.174;2022-09-03T07:40:21;3.70;;;2.30;;
13463;SDS011;6804;48.774;9.174;2022-09-03T07:42:57;6.20;;;4.00;;
13463;SDS011;6804;48.774;9.174;2022-09-03T07:45:27;7.23;;;3.17;;
13463;SDS011;6804;48.774;9.174;2022-09-03T07:47:55;4.67;;;2.80;;
13463;SDS011;6804;48.774;9.174;2022-09-03T07:50:25;3.33;;;2.63;;
13463;SDS011;6804;48.774;9.174;2022-09-03T07:53:01;2.90;;;2.33;;
13463;SDS011;6804;48.774;9.174;2022-09-03T07:55:30;3.63;;;2.80;;
13463;SDS011;6804;48.774;9.174;2022-09-03T07:57:58;4.30;;;2.40;;
13463;SDS011;6804;48.774;9.174;2022-09-03T08:00:25;3.97;;;3.10;;
13463;SDS011;6804;48.774;9.174;2022-09-03T08:02:53;3.27;;;2.87;;
13463;SDS011;6804;48.774;9.174;2022-09-03T08:05:20;3.83;;;2.97;;
13463;SDS011;6804;48.774;9.174;2022-09-03T08:07:50;3.17;;;2.43;;
13463;SDS011;6804;48.774;9.174;2022-09-03T08:10:17;3.43;;;2.83;;
13463;SDS011;6804;48.774;9.174;2022-09-03T08:12:50;3.07;;;2.80;;
13463;SDS011;6804;48.774;9.174;2022-09-03T08:15:17;3.70;;;2.67;;
13463;SDS011;6804;48.774;9.174;2022-09-03T08:17:45;2.80;;;2.60;;
13463;SDS011;6804;48.774;9.174;2022-09-03T08:20:12;2.60;;;2.40;;
13463;SDS011;6804;48.774;9.174;2022-09-03T08:22:43;3.60;;;2.67;;
13463;SDS011;6804;48.774;9.174;2022-09-03T08:25:12;4.77;;;2.50;;
13463;SDS011;6804;48.774;9.174;2022-09-03T08:27:39;3.70;;;2.73;;
13463;SDS011;6804;48.774;9.174;2022-09-03T08:30:09;4.03;;;2.67;;
13463;SDS011;6804;48.774;9.174;2022-09-03T08:32:39;3.23;;;2.87;;
13463;SDS011;6804;48.774;9.174;2022-09-03T08:35:07;2.97;;;2.70;;
13463;SDS011;6804;48.774;9.174;2022-09-03T08:37:37;4.07;;;2.92;;
13463;SDS011;6804;48.774;9.174;2022-09-03T08:40:08;4.10;;;3.40;;
13463;SDS011;6804;48.774;9.174;2022-09-03T08:42:43;3.45;;;2.63;;
13463;SDS011;6804;48.774;9.174;2022-09-03T08:45:20;4.63;;;3.00;;
13463;SDS011;6804;48.774;9.174;2022-09-03T08:47:55;3.47;;;2.58;;
13463;SDS011;6804;48.774;9.174;2022-09-03T08:50:34;2.92;;;2.60;;
13463;SDS011;6804;48.774;9.174;2022-09-03T08:53:08;5.18;;;3.10;;
13463;SDS011;6804;48.774;9.174;2022-09-03T08:55:47;4.57;;;3.00;;
13463;SDS011;6804;48.774;9.174;2022-09-03T08:58:19;3.15;;;2.78;;
13463;SDS011;6804;48.774;9.174;2022-09-03T09:00:52;3.47;;;2.60;;
13463;SDS011;6804;48.774;9.174;2022-09-03T09:03:33;3.25;;;2.50;;
13463;SDS011;6804;48.774;9.174;2022-09-03T09:06:17;3.25;;;2.95;;
13463;SDS011;6804;48.774;9.174;2022-09-03T09:08:57;3.45;;;2.65;;
13463;SDS011;6804;48.774;9.174;2022-09-03T09:11:34;3.03;;;2.47;;
13463;SDS011;6804;48.774;9.174;2022-09-03T09:14:16;3.28;;;2.50;;
13463;SDS011;6804;48.774;9.174;2022-09-03T09:16:49;4.40;;;2.60;;
13463;SDS011;6804;48.774;9.174;2022-09-03T09:19:27;3.27;;;2.40;;
13463;SDS011;6804;48.774;9.174;2022-09-03T09:22:04;3.27;;;2.40;;
13463;SDS011;6804;48.774;9.174;2022-09-03T09:24:40;3.43;;;2.97;;
13463;SDS011;6804;48.774;9.174;2022-09-03T09:27:13;3.40;;;3.10;;
13463;SDS011;6804;48.774;9.174;2022-09-03T09:29:42;3.23;;;2.93;;
13463;SDS011;6804;48.774;9.174;2022-09-03T09:32:23;3.40;;;2.70;;
13463;SDS011;6804;48.774;9.174;2022-09-03T09:34:53;2.87;;;2.63;;
13463;SDS011;6804;48.774;9.174;2022-09-03T09:37:21;2.67;;;2.47;;
13463;SDS011;6804;48.774;9.174;2022-09-03T09:39:55;3.50;;;3.13;;
13463;SDS011;6804;48.774;9.174;2022-09-03T09:42:26;4.75;;;2.95;;
13463;SDS011;6804;48.774;9.174;2022-09-03T09:44:55;4.13;;;2.78;;
13463;SDS011;6804;48.774;9.174;2022-09-03T09:47:28;3.72;;;3.00;;
13463;SDS011;6804;48.774;9.174;2022-09-03T09:50:03;3.08;;;2.78;;
13463;SDS011;6804;48.774;9.174;2022-09-03T09:52:45;3.60;;;3.30;;
13463;SDS011;6804;48.774;9.174;2022-09-03T09:55:15;2.97;;;2.65;;
13463;SDS011;6804;48.774;9.174;2022-09-03T09:57:44;3.22;;;2.60;;
13463;SDS011;6804;48.774;9.174;2022-09-03T10:00:13;3.53;;;2.88;;
13463;SDS011;6804;48.774;9.174;2022-09-03T10:02:48;3.97;;;2.90;;
13463;SDS011;6804;48.774;9.174;2022-09-03T10:05:21;4.35;;;2.80;;
13463;SDS011;6804;48.774;9.174;2022-09-03T10:07:54;3.50;;;3.15;;
13463;SDS011;6804;48.774;9.174;2022-09-03T10:10:23;4.65;;;3.20;;
13463;SDS011;6804;48.774;9.174;2022-09-03T10:12:55;6.25;;;3.08;;
13463;SDS011;6804;48.774;9.174;2022-09-03T10:15:28;3.42;;;2.80;;
13463;SDS011;6804;48.774;9.174;2022-09-03T10:18:03;4.05;;;2.90;;
13463;SDS011;6804;48.774;9.174;2022-09-03T10:20:39;4.10;;;3.17;;
13463;SDS011;6804;48.774;9.174;2022-09-03T10:23:15;4.05;;;2.90;;
13463;SDS011;6804;48.774;9.174;2022-09-03T10:25:50;2.85;;;2.65;;
13463;SDS011;6804;48.774;9.174;2022-09-03T10:28:29;3.55;;;3.15;;
13463;SDS011;6804;48.774;9.174;2022-09-03T10:31:13;2.90;;;2.70;;
13463;SDS011;6804;48.774;9.174;2022-09-03T10:33:59;3.50;;;3.20;;
13463;SDS011;6804;48.774;9.174;2022-09-03T10:36:33;3.42;;;2.90;;
13463;SDS011;6804;48.774;9.174;2022-09-03T10:39:04;3.15;;;2.72;;
13463;SDS011;6804;48.774;9.174;2022-09-03T10:41:41;3.00;;;2.80;;
13463;SDS011;6804;48.774;9.174;2022-09-03T10:44:24;3.40;;;3.10;;
13463;SDS011;6804;48.774;9.174;2022-09-03T10:47:36;3.05;;;2.83;;
13463;SDS011;6804;48.774;9.174;2022-09-03T10:50:27;3.72;;;3.20;;
13463;SDS011;6804;48.774;9.174;2022-09-03T10:53:05;3.90;;;3.60;;
13463;SDS011;6804;48.774;9.174;2022-09-03T10:55:42;4.03;;;2.78;;
13463;SDS011;6804;48.774;9.174;2022-09-03T10:58:25;3.47;;;3.17;;
13463;SDS011;6804;48.774;9.174;2022-09-03T11:01:07;3.38;;;2.90;;
13463;SDS011;6804;48.774;9.174;2022-09-03T11:03:44;4.07;;;2.95;;
13463;SDS011;6804;48.774;9.174;2022-09-03T11:06:16;3.70;;;3.20;;
13463;SDS011;6804;48.774;9.174;2022-09-03T11:08:50;3.63;;;2.90;;
13463;SDS011;6804;48.774;9.174;2022-09-03T11:11:26;2.95;;;2.65;;
13463;SDS011;6804;48.774;9.174;2022-09-03T11:14:03;3.92;;;3.22;;
13463;SDS011;6804;48.774;9.174;2022-09-03T11:16:34;3.50;;;3.20;;
13463;SDS011;6804;48.774;9.174;2022-09-03T11:19:10;5.03;;;3.15;;
13463;SDS011;6804;48.774;9.174;2022-09-03T11:21:43;3.30;;;3.00;;
13463;SDS011;6804;48.774;9.174;2022-09-03T11:24:15;4.38;;;3.33;;
13463;SDS011;6804;48.774;9.174;2022-09-03T11:26:47;3.30;;;3.00;;
13463;SDS011;6804;48.774;9.174;2022-09-03T11:29:23;3.22;;;2.88;;
13463;SDS011;6804;48.774;9.174;2022-09-03T11:31:58;4.90;;;3.20;;
13463;SDS011;6804;48.774;9.174;2022-09-03T11:34:43;3.08;;;2.78;;
13463;SDS011;6804;48.774;9.174;2022-09-03T11:37:20;4.18;;;3.67;;
13463;SDS011;6804;48.774;9.174;2022-09-03T11:39:53;5.53;;;3.65;;
13463;SDS011;6804;48.774;9.174;2022-09-03T11:42:33;4.78;;;3.47;;
13463;SDS011;6804;48.774;9.174;2022-09-03T11:45:12;4.10;;;3.70;;
13463;SDS011;6804;48.774;9.174;2022-09-03T11:48:00;5.80;;;4.75;;
13463;SDS011;6804;48.774;9.174;2022-09-03T11:50:28;4.85;;;4.18;;
13463;SDS011;6804;48.774;9.174;2022-09-03T11:53:07;4.63;;;3.22;;
13463;SDS011;6804;48.774;9.174;2022-09-03T11:55:47;3.15;;;2.88;;
13463;SDS011;6804;48.774;9.174;2022-09-03T11:58:20;4.43;;;3.37;;
13463;SDS011;6804;48.774;9.174;2022-09-03T12:00:54;4.50;;;4.00;;
13463;SDS011;6804;48.774;9.174;2022-09-03T12:03:24;4.13;;;3.13;;
13463;SDS011;6804;48.774;9.174;2022-09-03T12:06:07;3.07;;;2.77;;
13463;SDS011;6804;48.774;9.174;2022-09-03T12:08:56;4.50;;;3.30;;
13463;SDS011;6804;48.774;9.174;2022-09-03T12:11:44;3.30;;;3.00;;
13463;SDS011;6804;48.774;9.174;2022-09-03T12:14:29;3.60;;;3.30;;
13463;SDS011;6804;48.774;9.174;2022-09-03T12:17:07;3.60;;;3.30;;
13463;SDS011;6804;48.774;9.174;2022-09-03T12:19:46;4.17;;;3.00;;
13463;SDS011;6804;48.774;9.174;2022-09-03T12:22:21;4.47;;;3.43;;
13463;SDS011;6804;48.774;9.174;2022-09-03T12:24:51;3.50;;;3.20;;
13463;SDS011;6804;48.774;9.174;2022-09-03T12:27:19;5.43;;;3.20;;
13463;SDS011;6804;48.774;9.174;2022-09-03T12:29:51;3.73;;;3.10;;
13463;SDS011;6804;48.774;9.174;2022-09-03T12:32:27;3.77;;;2.87;;
13463;SDS011;6804;48.774;9.174;2022-09-03T12:34:56;3.58;;;2.58;;
13463;SDS011;6804;48.774;9.174;2022-09-03T12:37:26;3.57;;;2.60;;
13463;SDS011;6804;48.774;9.174;2022-09-03T12:40:02;3.53;;;2.97;;
13463;SDS011;6804;48.774;9.174;2022-09-03T12:42:30;3.73;;;2.90;;
13463;SDS011;6804;48.774;9.174;2022-09-03T12:45:04;3.73;;;2.83;;
13463;SDS011;6804;48.774;9.174;2022-09-03T12:47:37;4.30;;;3.00;;
13463;SDS011;6804;48.774;9.174;2022-09-03T12:50:06;3.00;;;2.70;;
13463;SDS011;6804;48.774;9.174;2022-09-03T12:52:36;2.53;;;2.13;;
13463;SDS011;6804;48.774;9.174;2022-09-03T12:55:15;4.13;;;3.07;;
13463;SDS011;6804;48.774;9.174;2022-09-03T12:57:52;3.70;;;3.20;;
13463;SDS011;6804;48.774;9.174;2022-09-03T13:00:27;5.47;;;3.43;;
13463;SDS011;6804;48.774;9.174;2022-09-03T13:03:01;3.77;;;2.77;;
13463;SDS011;6804;48.774;9.174;2022-09-03T13:05:39;3.20;;;2.10;;
13463;SDS011;6804;48.774;9.174;2022-09-03T13:08:13;4.13;;;2.60;;
13463;SDS011;6804;48.774;9.174;2022-09-03T13:10:48;3.73;;;2.90;;
13463;SDS011;6804;48.774;9.174;2022-09-03T13:13:20;3.47;;;2.20;;
13463;SDS011;6804;48.774;9.174;2022-09-03T13:15:58;3.87;;;1.90;;
13463;SDS011;6804;48.774;9.174;2022-09-03T13:18:40;3.73;;;2.33;;
13463;SDS011;6804;48.774;9.174;2022-09-03T13:21:15;5.00;;;2.33;;
13463;SDS011;6804;48.774;9.174;2022-09-03T13:24:01;3.60;;;2.40;;
13463;SDS011;6804;48.774;9.174;2022-09-03T13:26:45;2.90;;;2.10;;
13463;SDS011;6804;48.774;9.174;2022-09-03T13:29:26;3.37;;;2.30;;
13463;SDS011;6804;48.774;9.174;2022-09-03T13:32:07;2.87;;;2.47;;
13463;SDS011;6804;48.774;9.174;2022-09-03T13:34:47;4.43;;;2.90;;
13463;SDS011;6804;48.774;9.174;2022-09-03T13:37:25;4.67;;;2.90;;
13463;SDS011;6804;48.774;9.174;2022-09-03T13:39:56;4.57;;;2.43;;
13463;SDS011;6804;48.774;9.174;2022-09-03T13:42:31;2.67;;;1.80;;
13463;SDS011;6804;48.774;9.174;2022-09-03T13:45:02;2.63;;;1.90;;
13463;SDS011;6804;48.774;9.174;2022-09-03T13:47:39;3.17;;;2.00;;
13463;SDS011;6804;48.774;9.174;2022-09-03T13:50:30;2.63;;;2.00;;
13463;SDS011;6804;48.774;9.174;2022-09-03T13:53:07;2.50;;;1.80;;
13463;SDS011;6804;48.774;9.174;2022-09-03T13:55:43;2.60;;;1.80;;
13463;SDS011;6804;48.774;9.174;2022-09-03T13:58:20;2.77;;;2.03;;
13463;SDS011;6804;48.774;9.174;2022-09-03T14:01:03;3.20;;;1.80;;
13463;SDS011;6804;48.774;9.174;2022-09-03T14:03:42;2.37;;;1.80;;
13463;SDS011;6804;48.774;9.174;2022-09-03T14:06:18;2.77;;;1.90;;
13463;SDS011;6804;48.774;9.174;2022-09-03T14:09:00;1.93;;;1.70;;
13463;SDS011;6804;48.774;9.174;2022-09-03T14:11:48;4.10;;;1.80;;
13463;SDS011;6804;48.774;9.174;2022-09-03T14:14:35;3.23;;;2.30;;
13463;SDS011;6804;48.774;9.174;2022-09-03T14:17:14;2.23;;;1.47;;
13463;SDS011;6804;48.774;9.174;2022-09-03T14:19:47;3.37;;;1.80;;
13463;SDS011;6804;48.774;9.174;2022-09-03T14:22:21;2.63;;;1.60;;
13463;SDS011;6804;48.774;9.174;2022-09-03T14:24:52;1.90;;;1.30;;
13463;SDS011;6804;48.774;9.174;2022-09-03T14:27:26;3.73;;;1.60;;
13463;SDS011;6804;48.774;9.174;2022-09-03T14:30:03;2.38;;;1.55;;
13463;SDS011;6804;48.774;9.174;2022-09-03T14:32:36;1.77;;;1.40;;
13463;SDS011;6804;48.774;9.174;2022-09-03T14:35:16;1.88;;;1.60;;
13463;SDS011;6804;48.774;9.174;2022-09-03T14:41:03;1.83;;;1.40;;
13463;SDS011;6804;48.774;9.174;2022-09-03T14:43:56;2.67;;;1.60;;
13463;SDS011;6804;48.774;9.174;2022-09-03T14:46:44;1.25;;;1.00;;
13463;SDS011;6804;48.774;9.174;2022-09-03T14:55:22;3.25;;;1.80;;
13463;SDS011;6804;48.774;9.174;2022-09-03T14:58:03;2.65;;;1.42;;
13463;SDS011;6804;48.774;9.174;2022-09-03T15:00:45;2.00;;;1.35;;
13463;SDS011;6804;48.774;9.174;2022-09-03T15:06:31;3.03;;;1.63;;
13463;SDS011;6804;48.774;9.174;2022-09-03T15:09:29;2.42;;;1.50;;
13463;SDS011;6804;48.774;9.174;2022-09-03T15:12:07;1.50;;;1.35;;
13463;SDS011;6804;48.774;9.174;2022-09-03T15:14:45;2.28;;;1.58;;
13463;SDS011;6804;48.774;9.174;2022-09-03T15:17:26;1.52;;;1.20;;
13463;SDS011;6804;48.774;9.174;2022-09-03T15:20:16;2.50;;;2.22;;
13463;SDS011;6804;48.774;9.174;2022-09-03T15:29:06;1.50;;;1.40;;
13463;SDS011;6804;48.774;9.174;2022-09-03T15:31:54;2.17;;;1.65;;
13463;SDS011;6804;48.774;9.174;2022-09-03T15:34:41;2.42;;;1.40;;
13463;SDS011;6804;48.774;9.174;2022-09-03T15:37:21;2.10;;;1.55;;
13463;SDS011;6804;48.774;9.174;2022-09-03T15:39:58;2.60;;;2.03;;
13463;SDS011;6804;48.774;9.174;2022-09-03T15:42:31;1.40;;;1.30;;
13463;SDS011;6804;48.774;9.174;2022-09-03T15:45:03;2.25;;;1.85;;
13463;SDS011;6804;48.774;9.174;2022-09-03T15:47:35;3.30;;;1.55;;
13463;SDS011;6804;48.774;9.174;2022-09-03T15:50:12;2.10;;;1.50;;
13463;SDS011;6804;48.774;9.174;2022-09-03T15:52:48;3.20;;;1.75;;
13463;SDS011;6804;48.774;9.174;2022-09-03T15:55:28;3.30;;;2.20;;
13463;SDS011;6804;48.774;9.174;2022-09-03T15:58:03;4.05;;;2.30;;
13463;SDS011;6804;48.774;9.174;2022-09-03T16:00:49;3.95;;;2.67;;
13463;SDS011;6804;48.774;9.174;2022-09-03T16:03:30;3.47;;;2.08;;
13463;SDS011;6804;48.774;9.174;2022-09-03T16:06:15;3.92;;;2.40;;